Phoenix, Arizona
Traffic Map
Current Weather Conditions
Phoenix, Arizona
Clear
Clear
28°
Feels Like: 28°
Wind Chill: 28° Ceiling: Unl
Heat Index: 28° Visibility: 10mi
Dew Point: -8° Wind: 8mph
Humidity: 9% Direction: 60° (ENE)
Pressure: 30.07in Gusts: 0mph
Raw Report DataKPHX 100051Z 06007KT 10SM CLR 28/M08 A3007 RMK AO2 SLP169 T02831078
Traffic Incident Summary
Active as of:
Severity:
Category:
InformationThere was an issue retrieving the traffic information for this location. Please try a different location or try again shortly.
Advertisements
Track Severe Weather on mobile